Arrington, Virginia
Current Conditions -  °F | °C
As of 1:15 PM on Thursday 18 Dec 2014 (Local Time) from KW13 Reporting Station
Clear Clear  
Wind Chill: 37°   Ceiling: Unl
Heat Index: 37°   Visibility: 10mi
Dew Point: 21°   Wind: 3mph
Humidity: 51%   Direction: 210°SSW
Pressure: 30.07"   Gusts: NA
Location:  37.68°N, 78.9°W
Report Text: KW13 181815Z AUTO 21003KT 10SM CLR 03/M06 A3007 RMK AO1 T00301062
Loading
Personal Weather Stations






























Interactive Weather Map New forecast layout! Learn more

10-Day Weather Forecast

Advertisements
Track Severe Weather on mobile